sensor_id;sensor_type;location;lat;lon;timestamp;temperature;humidity
9219;DHT22;4644;48.858;9.184;2024-03-08T00:00:01;3.50;99.90
9219;DHT22;4644;48.858;9.184;2024-03-08T00:02:35;3.50;99.90
9219;DHT22;4644;48.858;9.184;2024-03-08T00:05:04;3.50;99.90
9219;DHT22;4644;48.858;9.184;2024-03-08T00:07:31;3.40;99.90
9219;DHT22;4644;48.858;9.184;2024-03-08T00:09:58;3.30;99.90
9219;DHT22;4644;48.858;9.184;2024-03-08T00:12:26;3.20;99.90
9219;DHT22;4644;48.858;9.184;2024-03-08T00:14:53;3.10;99.90
9219;DHT22;4644;48.858;9.184;2024-03-08T00:17:22;3.10;99.90
9219;DHT22;4644;48.858;9.184;2024-03-08T00:19:49;3.00;99.90
9219;DHT22;4644;48.858;9.184;2024-03-08T00:22:17;2.90;99.90
9219;DHT22;4644;48.858;9.184;2024-03-08T00:24:44;2.90;99.90
9219;DHT22;4644;48.858;9.184;2024-03-08T00:27:12;2.80;99.90
9219;DHT22;4644;48.858;9.184;2024-03-08T00:29:39;2.80;99.90
9219;DHT22;4644;48.858;9.184;2024-03-08T00:32:06;2.70;99.90
9219;DHT22;4644;48.858;9.184;2024-03-08T00:34:36;2.80;99.90
9219;DHT22;4644;48.858;9.184;2024-03-08T00:37:04;2.90;99.90
9219;DHT22;4644;48.858;9.184;2024-03-08T00:39:31;3.00;99.90
9219;DHT22;4644;48.858;9.184;2024-03-08T00:41:58;3.00;99.90
9219;DHT22;4644;48.858;9.184;2024-03-08T00:44:25;2.90;99.90
9219;DHT22;4644;48.858;9.184;2024-03-08T00:46:52;2.80;99.90
9219;DHT22;4644;48.858;9.184;2024-03-08T00:49:20;2.70;99.90
9219;DHT22;4644;48.858;9.184;2024-03-08T00:51:49;2.60;99.90
9219;DHT22;4644;48.858;9.184;2024-03-08T00:54:16;2.60;99.90
9219;DHT22;4644;48.858;9.184;2024-03-08T00:56:43;2.50;99.90
9219;DHT22;4644;48.858;9.184;2024-03-08T00:59:11;2.50;99.90
9219;DHT22;4644;48.858;9.184;2024-03-08T01:01:40;2.40;99.90
9219;DHT22;4644;48.858;9.184;2024-03-08T01:04:07;2.40;99.90
9219;DHT22;4644;48.858;9.184;2024-03-08T01:06:34;2.40;99.90
9219;DHT22;4644;48.858;9.184;2024-03-08T01:09:03;2.30;99.90
9219;DHT22;4644;48.858;9.184;2024-03-08T01:11:33;2.30;99.90
9219;DHT22;4644;48.858;9.184;2024-03-08T01:14:00;2.20;99.90
9219;DHT22;4644;48.858;9.184;2024-03-08T01:16:28;2.20;99.90
9219;DHT22;4644;48.858;9.184;2024-03-08T01:18:55;2.20;99.90
9219;DHT22;4644;48.858;9.184;2024-03-08T01:21:22;2.20;99.90
9219;DHT22;4644;48.858;9.184;2024-03-08T01:23:49;2.20;99.90
9219;DHT22;4644;48.858;9.184;2024-03-08T01:26:19;2.20;99.90
9219;DHT22;4644;48.858;9.184;2024-03-08T01:28:46;2.20;99.90
9219;DHT22;4644;48.858;9.184;2024-03-08T01:31:13;2.20;99.90
9219;DHT22;4644;48.858;9.184;2024-03-08T01:33:41;2.10;99.90
9219;DHT22;4644;48.858;9.184;2024-03-08T01:36:09;2.10;99.90
9219;DHT22;4644;48.858;9.184;2024-03-08T01:38:36;2.10;99.90
9219;DHT22;4644;48.858;9.184;2024-03-08T01:41:04;2.00;99.90
9219;DHT22;4644;48.858;9.184;2024-03-08T01:43:32;2.00;99.90
9219;DHT22;4644;48.858;9.184;2024-03-08T01:46:00;2.00;99.90
9219;DHT22;4644;48.858;9.184;2024-03-08T01:48:27;2.00;99.90
9219;DHT22;4644;48.858;9.184;2024-03-08T01:50:55;2.00;99.90
9219;DHT22;4644;48.858;9.184;2024-03-08T01:53:24;2.00;99.90
9219;DHT22;4644;48.858;9.184;2024-03-08T01:55:54;2.10;99.90
9219;DHT22;4644;48.858;9.184;2024-03-08T01:58:23;2.10;99.90
9219;DHT22;4644;48.858;9.184;2024-03-08T02:00:53;2.10;99.90
9219;DHT22;4644;48.858;9.184;2024-03-08T02:03:21;2.20;99.90
9219;DHT22;4644;48.858;9.184;2024-03-08T02:05:49;2.20;99.90
9219;DHT22;4644;48.858;9.184;2024-03-08T02:08:17;2.20;99.90
9219;DHT22;4644;48.858;9.184;2024-03-08T02:10:45;2.20;99.90
9219;DHT22;4644;48.858;9.184;2024-03-08T02:13:12;2.20;99.90
9219;DHT22;4644;48.858;9.184;2024-03-08T02:15:57;2.20;99.90
9219;DHT22;4644;48.858;9.184;2024-03-08T02:18:38;2.10;99.90
9219;DHT22;4644;48.858;9.184;2024-03-08T02:21:07;2.20;99.90
9219;DHT22;4644;48.858;9.184;2024-03-08T02:23:35;2.20;99.90
9219;DHT22;4644;48.858;9.184;2024-03-08T02:26:03;2.20;99.90
9219;DHT22;4644;48.858;9.184;2024-03-08T02:28:30;2.20;99.90
9219;DHT22;4644;48.858;9.184;2024-03-08T02:30:57;2.20;99.90
9219;DHT22;4644;48.858;9.184;2024-03-08T02:33:27;2.20;99.90
9219;DHT22;4644;48.858;9.184;2024-03-08T02:35:54;2.20;99.90
9219;DHT22;4644;48.858;9.184;2024-03-08T02:38:23;2.10;99.90
9219;DHT22;4644;48.858;9.184;2024-03-08T02:40:51;2.10;99.90
9219;DHT22;4644;48.858;9.184;2024-03-08T02:43:20;2.10;99.90
9219;DHT22;4644;48.858;9.184;2024-03-08T02:45:47;2.00;99.90
9219;DHT22;4644;48.858;9.184;2024-03-08T02:48:15;2.00;99.90
9219;DHT22;4644;48.858;9.184;2024-03-08T02:50:43;2.00;99.90
9219;DHT22;4644;48.858;9.184;2024-03-08T02:53:10;2.00;99.90
9219;DHT22;4644;48.858;9.184;2024-03-08T02:55:40;2.10;99.90
9219;DHT22;4644;48.858;9.184;2024-03-08T02:58:07;2.00;99.90
9219;DHT22;4644;48.858;9.184;2024-03-08T03:00:35;2.00;99.90
9219;DHT22;4644;48.858;9.184;2024-03-08T03:03:03;2.00;99.90
9219;DHT22;4644;48.858;9.184;2024-03-08T03:05:30;2.00;99.90
9219;DHT22;4644;48.858;9.184;2024-03-08T03:07:57;2.00;99.90
9219;DHT22;4644;48.858;9.184;2024-03-08T03:10:25;2.00;99.90
9219;DHT22;4644;48.858;9.184;2024-03-08T03:12:53;1.90;99.90
9219;DHT22;4644;48.858;9.184;2024-03-08T03:15:20;1.90;99.90
9219;DHT22;4644;48.858;9.184;2024-03-08T03:17:48;2.00;99.90
9219;DHT22;4644;48.858;9.184;2024-03-08T03:20:16;2.10;99.90
9219;DHT22;4644;48.858;9.184;2024-03-08T03:22:49;2.10;99.90
9219;DHT22;4644;48.858;9.184;2024-03-08T03:25:30;2.10;99.90
9219;DHT22;4644;48.858;9.184;2024-03-08T03:28:12;2.10;99.90
9219;DHT22;4644;48.858;9.184;2024-03-08T03:30:40;2.00;99.90
9219;DHT22;4644;48.858;9.184;2024-03-08T03:33:07;2.10;99.90
9219;DHT22;4644;48.858;9.184;2024-03-08T03:35:35;2.10;99.90
9219;DHT22;4644;48.858;9.184;2024-03-08T03:38:03;2.10;99.90
9219;DHT22;4644;48.858;9.184;2024-03-08T03:40:32;2.10;99.90
9219;DHT22;4644;48.858;9.184;2024-03-08T03:43:00;2.10;99.90
9219;DHT22;4644;48.858;9.184;2024-03-08T03:45:29;2.10;99.90
9219;DHT22;4644;48.858;9.184;2024-03-08T03:47:59;2.10;99.90
9219;DHT22;4644;48.858;9.184;2024-03-08T03:50:28;2.00;99.90
9219;DHT22;4644;48.858;9.184;2024-03-08T03:52:55;2.00;99.90
9219;DHT22;4644;48.858;9.184;2024-03-08T03:55:22;2.00;99.90
9219;DHT22;4644;48.858;9.184;2024-03-08T03:57:49;2.00;99.90
9219;DHT22;4644;48.858;9.184;2024-03-08T04:00:17;2.00;99.90
9219;DHT22;4644;48.858;9.184;2024-03-08T04:02:45;2.00;99.90
9219;DHT22;4644;48.858;9.184;2024-03-08T04:05:13;2.00;99.90
9219;DHT22;4644;48.858;9.184;2024-03-08T04:07:40;2.00;99.90
9219;DHT22;4644;48.858;9.184;2024-03-08T04:10:09;2.00;99.90
9219;DHT22;4644;48.858;9.184;2024-03-08T04:12:37;2.00;99.90
9219;DHT22;4644;48.858;9.184;2024-03-08T04:15:05;2.00;99.90
9219;DHT22;4644;48.858;9.184;2024-03-08T04:17:47;2.00;99.90
9219;DHT22;4644;48.858;9.184;2024-03-08T04:20:15;2.00;99.90
9219;DHT22;4644;48.858;9.184;2024-03-08T04:22:43;1.90;99.90
9219;DHT22;4644;48.858;9.184;2024-03-08T04:25:10;1.90;99.90
9219;DHT22;4644;48.858;9.184;2024-03-08T04:27:37;2.00;99.90
9219;DHT22;4644;48.858;9.184;2024-03-08T04:30:05;2.00;99.90
9219;DHT22;4644;48.858;9.184;2024-03-08T04:32:33;2.00;99.90
9219;DHT22;4644;48.858;9.184;2024-03-08T04:35:02;2.00;99.90
9219;DHT22;4644;48.858;9.184;2024-03-08T04:37:29;1.90;99.90
9219;DHT22;4644;48.858;9.184;2024-03-08T04:39:56;1.80;99.90
9219;DHT22;4644;48.858;9.184;2024-03-08T04:42:24;1.80;99.90
9219;DHT22;4644;48.858;9.184;2024-03-08T04:44:52;1.80;99.90
9219;DHT22;4644;48.858;9.184;2024-03-08T04:47:19;1.70;99.90
9219;DHT22;4644;48.858;9.184;2024-03-08T04:49:46;1.70;99.90
9219;DHT22;4644;48.858;9.184;2024-03-08T04:52:15;1.80;99.90
9219;DHT22;4644;48.858;9.184;2024-03-08T04:54:42;1.80;99.90
9219;DHT22;4644;48.858;9.184;2024-03-08T04:57:10;1.80;99.90
9219;DHT22;4644;48.858;9.184;2024-03-08T04:59:51;1.80;99.90
9219;DHT22;4644;48.858;9.184;2024-03-08T05:02:18;1.80;99.90
9219;DHT22;4644;48.858;9.184;2024-03-08T05:04:48;1.80;99.90
9219;DHT22;4644;48.858;9.184;2024-03-08T05:07:17;1.80;99.90
9219;DHT22;4644;48.858;9.184;2024-03-08T05:09:45;1.80;99.90
9219;DHT22;4644;48.858;9.184;2024-03-08T05:12:17;1.80;99.90
9219;DHT22;4644;48.858;9.184;2024-03-08T05:14:45;1.80;99.90
9219;DHT22;4644;48.858;9.184;2024-03-08T05:17:12;1.80;99.90
9219;DHT22;4644;48.858;9.184;2024-03-08T05:19:39;1.80;99.90
9219;DHT22;4644;48.858;9.184;2024-03-08T05:22:06;1.80;99.90
9219;DHT22;4644;48.858;9.184;2024-03-08T05:24:35;1.80;99.90
9219;DHT22;4644;48.858;9.184;2024-03-08T05:27:03;1.80;99.90
9219;DHT22;4644;48.858;9.184;2024-03-08T05:29:30;1.70;99.90
9219;DHT22;4644;48.858;9.184;2024-03-08T05:31:57;1.70;99.90
9219;DHT22;4644;48.858;9.184;2024-03-08T05:34:25;1.70;99.90
9219;DHT22;4644;48.858;9.184;2024-03-08T05:36:54;1.70;99.90
9219;DHT22;4644;48.858;9.184;2024-03-08T05:39:21;1.70;99.90
9219;DHT22;4644;48.858;9.184;2024-03-08T05:41:50;1.70;99.90
9219;DHT22;4644;48.858;9.184;2024-03-08T05:44:17;1.70;99.90
9219;DHT22;4644;48.858;9.184;2024-03-08T05:46:45;1.70;99.90
9219;DHT22;4644;48.858;9.184;2024-03-08T05:49:13;1.70;99.90
9219;DHT22;4644;48.858;9.184;2024-03-08T05:51:40;1.70;99.90
9219;DHT22;4644;48.858;9.184;2024-03-08T05:54:09;1.70;99.90
9219;DHT22;4644;48.858;9.184;2024-03-08T05:56:37;1.60;99.90
9219;DHT22;4644;48.858;9.184;2024-03-08T05:59:05;1.60;99.90
9219;DHT22;4644;48.858;9.184;2024-03-08T06:01:33;1.60;99.90
9219;DHT22;4644;48.858;9.184;2024-03-08T06:04:06;1.60;99.90
9219;DHT22;4644;48.858;9.184;2024-03-08T06:06:33;1.60;99.90
9219;DHT22;4644;48.858;9.184;2024-03-08T06:09:03;1.70;99.90
9219;DHT22;4644;48.858;9.184;2024-03-08T06:11:35;1.70;99.90
9219;DHT22;4644;48.858;9.184;2024-03-08T06:14:04;1.70;99.90
9219;DHT22;4644;48.858;9.184;2024-03-08T06:16:31;1.80;99.90
9219;DHT22;4644;48.858;9.184;2024-03-08T06:18:59;1.80;99.90
9219;DHT22;4644;48.858;9.184;2024-03-08T06:21:28;1.80;99.90
9219;DHT22;4644;48.858;9.184;2024-03-08T06:23:55;1.80;99.90
9219;DHT22;4644;48.858;9.184;2024-03-08T06:26:23;1.80;99.90
9219;DHT22;4644;48.858;9.184;2024-03-08T06:28:50;1.80;99.90
9219;DHT22;4644;48.858;9.184;2024-03-08T06:31:19;1.80;99.90
9219;DHT22;4644;48.858;9.184;2024-03-08T06:33:46;1.80;99.90
9219;DHT22;4644;48.858;9.184;2024-03-08T06:36:16;1.80;99.90
9219;DHT22;4644;48.858;9.184;2024-03-08T06:38:44;1.90;99.90
9219;DHT22;4644;48.858;9.184;2024-03-08T06:41:11;1.80;99.90
9219;DHT22;4644;48.858;9.184;2024-03-08T06:43:41;1.90;99.90
9219;DHT22;4644;48.858;9.184;2024-03-08T06:46:08;1.90;99.90
9219;DHT22;4644;48.858;9.184;2024-03-08T06:48:39;2.00;99.90
9219;DHT22;4644;48.858;9.184;2024-03-08T06:51:07;2.00;99.90
9219;DHT22;4644;48.858;9.184;2024-03-08T06:53:34;2.10;99.90
9219;DHT22;4644;48.858;9.184;2024-03-08T06:56:01;2.10;99.90
9219;DHT22;4644;48.858;9.184;2024-03-08T06:58:29;2.10;99.90
9219;DHT22;4644;48.858;9.184;2024-03-08T07:00:56;2.30;99.90
9219;DHT22;4644;48.858;9.184;2024-03-08T07:03:26;2.30;99.90
9219;DHT22;4644;48.858;9.184;2024-03-08T07:05:56;2.40;99.90
9219;DHT22;4644;48.858;9.184;2024-03-08T07:08:24;2.50;99.90
9219;DHT22;4644;48.858;9.184;2024-03-08T07:10:52;2.60;99.90
9219;DHT22;4644;48.858;9.184;2024-03-08T07:13:20;2.60;99.90
9219;DHT22;4644;48.858;9.184;2024-03-08T07:15:47;2.60;99.90
9219;DHT22;4644;48.858;9.184;2024-03-08T07:18:14;2.60;99.90
9219;DHT22;4644;48.858;9.184;2024-03-08T07:20:41;2.60;99.90
9219;DHT22;4644;48.858;9.184;2024-03-08T07:23:10;2.70;99.90
9219;DHT22;4644;48.858;9.184;2024-03-08T07:25:57;2.60;99.90
9219;DHT22;4644;48.858;9.184;2024-03-08T07:28:26;2.70;99.90
9219;DHT22;4644;48.858;9.184;2024-03-08T07:30:56;2.70;99.90
9219;DHT22;4644;48.858;9.184;2024-03-08T07:33:37;2.80;99.90
9219;DHT22;4644;48.858;9.184;2024-03-08T07:36:08;2.80;99.90
9219;DHT22;4644;48.858;9.184;2024-03-08T07:38:40;2.90;99.90
9219;DHT22;4644;48.858;9.184;2024-03-08T07:41:07;2.90;99.90
9219;DHT22;4644;48.858;9.184;2024-03-08T07:43:34;3.00;99.90
9219;DHT22;4644;48.858;9.184;2024-03-08T07:46:02;2.90;99.90
9219;DHT22;4644;48.858;9.184;2024-03-08T07:48:30;3.00;99.90
9219;DHT22;4644;48.858;9.184;2024-03-08T07:50:57;3.00;99.90
9219;DHT22;4644;48.858;9.184;2024-03-08T07:53:24;3.00;99.90
9219;DHT22;4644;48.858;9.184;2024-03-08T07:55:53;3.10;99.90
9219;DHT22;4644;48.858;9.184;2024-03-08T07:58:20;3.10;99.90
9219;DHT22;4644;48.858;9.184;2024-03-08T08:00:48;3.10;99.90
9219;DHT22;4644;48.858;9.184;2024-03-08T08:03:16;3.10;99.90
9219;DHT22;4644;48.858;9.184;2024-03-08T08:05:46;3.20;99.90
9219;DHT22;4644;48.858;9.184;2024-03-08T08:08:16;3.20;99.90
9219;DHT22;4644;48.858;9.184;2024-03-08T08:10:43;3.20;99.90
9219;DHT22;4644;48.858;9.184;2024-03-08T08:13:11;3.20;99.90
9219;DHT22;4644;48.858;9.184;2024-03-08T08:15:39;3.30;99.90
9219;DHT22;4644;48.858;9.184;2024-03-08T08:18:06;3.30;99.90
9219;DHT22;4644;48.858;9.184;2024-03-08T08:20:35;3.40;99.90
9219;DHT22;4644;48.858;9.184;2024-03-08T08:23:03;3.40;99.90
9219;DHT22;4644;48.858;9.184;2024-03-08T08:25:29;3.50;99.90
9219;DHT22;4644;48.858;9.184;2024-03-08T08:27:56;3.50;99.90
9219;DHT22;4644;48.858;9.184;2024-03-08T08:30:25;3.50;99.90
9219;DHT22;4644;48.858;9.184;2024-03-08T08:32:52;3.50;99.90
9219;DHT22;4644;48.858;9.184;2024-03-08T08:35:20;3.40;99.90
9219;DHT22;4644;48.858;9.184;2024-03-08T08:37:49;3.50;99.90
9219;DHT22;4644;48.858;9.184;2024-03-08T08:40:17;3.50;99.90
9219;DHT22;4644;48.858;9.184;2024-03-08T08:42:45;3.60;99.90
9219;DHT22;4644;48.858;9.184;2024-03-08T08:45:12;3.50;99.90
9219;DHT22;4644;48.858;9.184;2024-03-08T08:47:40;3.50;99.90
9219;DHT22;4644;48.858;9.184;2024-03-08T08:50:09;3.50;99.90
9219;DHT22;4644;48.858;9.184;2024-03-08T08:52:37;3.60;99.90
9219;DHT22;4644;48.858;9.184;2024-03-08T08:55:05;3.70;99.90
9219;DHT22;4644;48.858;9.184;2024-03-08T08:57:33;3.80;99.90
9219;DHT22;4644;48.858;9.184;2024-03-08T09:00:01;3.80;99.90
9219;DHT22;4644;48.858;9.184;2024-03-08T09:02:33;3.90;99.90
9219;DHT22;4644;48.858;9.184;2024-03-08T09:05:01;3.80;99.90
9219;DHT22;4644;48.858;9.184;2024-03-08T09:07:28;3.80;99.90
9219;DHT22;4644;48.858;9.184;2024-03-08T09:09:56;3.80;99.90
9219;DHT22;4644;48.858;9.184;2024-03-08T09:12:24;3.70;99.90
9219;DHT22;4644;48.858;9.184;2024-03-08T09:14:51;3.70;99.90
9219;DHT22;4644;48.858;9.184;2024-03-08T09:17:18;3.80;99.90
9219;DHT22;4644;48.858;9.184;2024-03-08T09:19:46;3.80;99.90
9219;DHT22;4644;48.858;9.184;2024-03-08T09:22:14;3.80;99.90
9219;DHT22;4644;48.858;9.184;2024-03-08T09:24:42;3.90;99.90
9219;DHT22;4644;48.858;9.184;2024-03-08T09:27:09;3.90;99.90
9219;DHT22;4644;48.858;9.184;2024-03-08T09:29:36;3.80;99.90
9219;DHT22;4644;48.858;9.184;2024-03-08T09:32:03;3.80;99.90
9219;DHT22;4644;48.858;9.184;2024-03-08T09:34:31;3.80;99.90
9219;DHT22;4644;48.858;9.184;2024-03-08T09:36:58;3.70;99.90
9219;DHT22;4644;48.858;9.184;2024-03-08T09:39:26;3.80;99.90
9219;DHT22;4644;48.858;9.184;2024-03-08T09:41:53;3.80;99.90
9219;DHT22;4644;48.858;9.184;2024-03-08T09:44:21;4.00;99.90
9219;DHT22;4644;48.858;9.184;2024-03-08T09:46:48;4.10;99.90
9219;DHT22;4644;48.858;9.184;2024-03-08T09:49:17;4.20;99.90
9219;DHT22;4644;48.858;9.184;2024-03-08T09:51:44;4.30;99.90
9219;DHT22;4644;48.858;9.184;2024-03-08T09:54:11;4.40;99.90
9219;DHT22;4644;48.858;9.184;2024-03-08T09:56:41;4.40;99.90
9219;DHT22;4644;48.858;9.184;2024-03-08T09:59:09;4.50;99.90
9219;DHT22;4644;48.858;9.184;2024-03-08T10:01:53;4.50;99.90
9219;DHT22;4644;48.858;9.184;2024-03-08T10:04:22;4.50;99.90
9219;DHT22;4644;48.858;9.184;2024-03-08T10:06:49;4.50;99.90
9219;DHT22;4644;48.858;9.184;2024-03-08T10:09:16;4.60;99.90
9219;DHT22;4644;48.858;9.184;2024-03-08T10:11:45;4.60;99.90
9219;DHT22;4644;48.858;9.184;2024-03-08T10:14:15;4.60;99.90
9219;DHT22;4644;48.858;9.184;2024-03-08T10:16:42;4.60;99.90
9219;DHT22;4644;48.858;9.184;2024-03-08T10:19:09;4.50;99.90
9219;DHT22;4644;48.858;9.184;2024-03-08T10:21:53;4.60;99.90
9219;DHT22;4644;48.858;9.184;2024-03-08T10:24:36;4.60;99.90
9219;DHT22;4644;48.858;9.184;2024-03-08T10:27:05;4.60;99.90
9219;DHT22;4644;48.858;9.184;2024-03-08T10:29:33;4.80;99.90
9219;DHT22;4644;48.858;9.184;2024-03-08T10:32:01;4.80;99.90
9219;DHT22;4644;48.858;9.184;2024-03-08T10:34:32;4.90;99.90
9219;DHT22;4644;48.858;9.184;2024-03-08T10:37:03;5.00;99.90
9219;DHT22;4644;48.858;9.184;2024-03-08T10:39:35;5.00;99.90
9219;DHT22;4644;48.858;9.184;2024-03-08T10:42:05;5.20;99.90
9219;DHT22;4644;48.858;9.184;2024-03-08T10:44:52;5.00;99.90
9219;DHT22;4644;48.858;9.184;2024-03-08T10:47:35;5.10;99.90
9219;DHT22;4644;48.858;9.184;2024-03-08T10:50:10;5.30;99.90
9219;DHT22;4644;48.858;9.184;2024-03-08T10:52:38;5.40;99.90
9219;DHT22;4644;48.858;9.184;2024-03-08T10:55:07;5.30;99.90
9219;DHT22;4644;48.858;9.184;2024-03-08T10:57:41;5.50;99.90
9219;DHT22;4644;48.858;9.184;2024-03-08T11:00:21;5.80;99.90
9219;DHT22;4644;48.858;9.184;2024-03-08T11:02:52;5.70;99.90
9219;DHT22;4644;48.858;9.184;2024-03-08T11:05:37;5.80;99.90
9219;DHT22;4644;48.858;9.184;2024-03-08T11:08:16;5.70;99.90
9219;DHT22;4644;48.858;9.184;2024-03-08T11:10:49;5.70;99.90
9219;DHT22;4644;48.858;9.184;2024-03-08T11:13:35;5.70;99.90
9219;DHT22;4644;48.858;9.184;2024-03-08T11:16:02;5.80;99.90
9219;DHT22;4644;48.858;9.184;2024-03-08T11:18:35;5.60;99.90
9219;DHT22;4644;48.858;9.184;2024-03-08T11:21:03;5.70;99.90
9219;DHT22;4644;48.858;9.184;2024-03-08T11:23:32;5.70;99.90
9219;DHT22;4644;48.858;9.184;2024-03-08T11:25:59;5.90;99.90
9219;DHT22;4644;48.858;9.184;2024-03-08T11:28:27;6.00;99.90
9219;DHT22;4644;48.858;9.184;2024-03-08T11:31:23;6.10;99.90
9219;DHT22;4644;48.858;9.184;2024-03-08T11:33:51;6.10;99.90
9219;DHT22;4644;48.858;9.184;2024-03-08T11:36:21;6.10;99.90
9219;DHT22;4644;48.858;9.184;2024-03-08T11:38:50;6.30;99.90
9219;DHT22;4644;48.858;9.184;2024-03-08T11:41:31;6.40;99.90
9219;DHT22;4644;48.858;9.184;2024-03-08T11:44:03;6.50;99.90
9219;DHT22;4644;48.858;9.184;2024-03-08T11:46:33;6.70;99.90
9219;DHT22;4644;48.858;9.184;2024-03-08T11:49:01;6.60;99.90
9219;DHT22;4644;48.858;9.184;2024-03-08T11:51:29;6.60;99.90
9219;DHT22;4644;48.858;9.184;2024-03-08T11:53:56;6.40;99.90
9219;DHT22;4644;48.858;9.184;2024-03-08T11:56:24;6.50;99.90
9219;DHT22;4644;48.858;9.184;2024-03-08T11:58:53;6.70;99.90
9219;DHT22;4644;48.858;9.184;2024-03-08T12:01:23;6.80;99.90
9219;DHT22;4644;48.858;9.184;2024-03-08T12:03:54;6.80;99.90
9219;DHT22;4644;48.858;9.184;2024-03-08T12:06:24;6.90;99.90
9219;DHT22;4644;48.858;9.184;2024-03-08T12:08:52;6.90;99.90
9219;DHT22;4644;48.858;9.184;2024-03-08T12:11:20;6.90;99.90
9219;DHT22;4644;48.858;9.184;2024-03-08T12:13:49;7.10;99.90
9219;DHT22;4644;48.858;9.184;2024-03-08T12:16:30;7.30;99.90
9219;DHT22;4644;48.858;9.184;2024-03-08T12:19:00;7.30;99.90
9219;DHT22;4644;48.858;9.184;2024-03-08T12:21:31;7.50;99.90
9219;DHT22;4644;48.858;9.184;2024-03-08T12:26:47;7.60;99.90
9219;DHT22;4644;48.858;9.184;2024-03-08T12:29:16;7.60;99.90
9219;DHT22;4644;48.858;9.184;2024-03-08T12:31:46;7.70;99.90
9219;DHT22;4644;48.858;9.184;2024-03-08T12:34:14;7.60;99.90
9219;DHT22;4644;48.858;9.184;2024-03-08T12:36:46;7.60;99.90
9219;DHT22;4644;48.858;9.184;2024-03-08T12:39:16;7.50;99.90
9219;DHT22;4644;48.858;9.184;2024-03-08T12:41:48;7.40;99.90
9219;DHT22;4644;48.858;9.184;2024-03-08T12:44:15;7.50;99.90
9219;DHT22;4644;48.858;9.184;2024-03-08T12:46:44;7.40;99.90
9219;DHT22;4644;48.858;9.184;2024-03-08T12:49:11;7.50;99.90
9219;DHT22;4644;48.858;9.184;2024-03-08T12:51:40;7.50;99.90
9219;DHT22;4644;48.858;9.184;2024-03-08T12:54:07;7.50;99.90
9219;DHT22;4644;48.858;9.184;2024-03-08T12:56:35;7.50;99.90
9219;DHT22;4644;48.858;9.184;2024-03-08T12:59:03;7.60;99.90
9219;DHT22;4644;48.858;9.184;2024-03-08T13:01:31;7.60;99.90
9219;DHT22;4644;48.858;9.184;2024-03-08T13:03:59;7.60;99.90
9219;DHT22;4644;48.858;9.184;2024-03-08T13:06:27;7.80;99.90
9219;DHT22;4644;48.858;9.184;2024-03-08T13:08:58;7.90;99.90
9219;DHT22;4644;48.858;9.184;2024-03-08T13:11:30;7.90;99.90
9219;DHT22;4644;48.858;9.184;2024-03-08T13:14:00;7.90;99.90
9219;DHT22;4644;48.858;9.184;2024-03-08T13:16:27;8.00;99.90
9219;DHT22;4644;48.858;9.184;2024-03-08T13:18:55;8.00;99.90
9219;DHT22;4644;48.858;9.184;2024-03-08T13:21:23;8.00;99.90
9219;DHT22;4644;48.858;9.184;2024-03-08T13:23:50;8.00;99.90
9219;DHT22;4644;48.858;9.184;2024-03-08T13:26:20;8.00;99.90
9219;DHT22;4644;48.858;9.184;2024-03-08T13:28:47;8.00;99.90
9219;DHT22;4644;48.858;9.184;2024-03-08T13:31:22;8.00;99.90
9219;DHT22;4644;48.858;9.184;2024-03-08T13:33:49;8.10;99.90
9219;DHT22;4644;48.858;9.184;2024-03-08T13:36:17;8.20;99.90
9219;DHT22;4644;48.858;9.184;2024-03-08T13:38:47;8.30;99.90
9219;DHT22;4644;48.858;9.184;2024-03-08T13:41:15;8.40;99.90
9219;DHT22;4644;48.858;9.184;2024-03-08T13:43:47;8.40;99.90
9219;DHT22;4644;48.858;9.184;2024-03-08T13:46:15;8.40;99.90
9219;DHT22;4644;48.858;9.184;2024-03-08T13:48:43;8.30;99.90
9219;DHT22;4644;48.858;9.184;2024-03-08T13:51:10;8.30;99.90
9219;DHT22;4644;48.858;9.184;2024-03-08T13:53:41;8.40;99.90
9219;DHT22;4644;48.858;9.184;2024-03-08T13:56:08;8.50;99.90
9219;DHT22;4644;48.858;9.184;2024-03-08T13:58:36;8.50;99.90
9219;DHT22;4644;48.858;9.184;2024-03-08T14:01:06;8.50;99.90
9219;DHT22;4644;48.858;9.184;2024-03-08T14:03:37;8.50;99.90
9219;DHT22;4644;48.858;9.184;2024-03-08T14:06:07;8.50;99.90
9219;DHT22;4644;48.858;9.184;2024-03-08T14:08:35;8.50;99.90
9219;DHT22;4644;48.858;9.184;2024-03-08T14:11:19;8.50;99.90
9219;DHT22;4644;48.858;9.184;2024-03-08T14:13:49;8.60;99.90
9219;DHT22;4644;48.858;9.184;2024-03-08T14:16:18;8.70;99.90
9219;DHT22;4644;48.858;9.184;2024-03-08T14:18:45;8.70;99.90
9219;DHT22;4644;48.858;9.184;2024-03-08T14:21:12;8.70;99.90
9219;DHT22;4644;48.858;9.184;2024-03-08T14:23:41;8.60;99.90
9219;DHT22;4644;48.858;9.184;2024-03-08T14:26:09;8.70;99.90
9219;DHT22;4644;48.858;9.184;2024-03-08T14:28:37;8.70;99.90
9219;DHT22;4644;48.858;9.184;2024-03-08T14:31:04;8.80;99.90
9219;DHT22;4644;48.858;9.184;2024-03-08T14:33:38;8.80;99.90
9219;DHT22;4644;48.858;9.184;2024-03-08T14:36:08;8.90;99.90
9219;DHT22;4644;48.858;9.184;2024-03-08T14:38:39;8.90;99.90
9219;DHT22;4644;48.858;9.184;2024-03-08T14:41:06;8.90;99.90
9219;DHT22;4644;48.858;9.184;2024-03-08T14:43:33;8.90;99.90
9219;DHT22;4644;48.858;9.184;2024-03-08T14:46:00;8.90;99.90
9219;DHT22;4644;48.858;9.184;2024-03-08T14:48:28;9.00;99.90
9219;DHT22;4644;48.858;9.184;2024-03-08T14:50:57;9.10;99.90
9219;DHT22;4644;48.858;9.184;2024-03-08T14:53:24;9.10;99.90
9219;DHT22;4644;48.858;9.184;2024-03-08T14:55:53;9.10;99.90
9219;DHT22;4644;48.858;9.184;2024-03-08T14:58:20;9.20;99.90
9219;DHT22;4644;48.858;9.184;2024-03-08T15:01:01;9.20;99.90
9219;DHT22;4644;48.858;9.184;2024-03-08T15:03:31;9.20;99.90
9219;DHT22;4644;48.858;9.184;2024-03-08T15:06:00;9.30;99.90
9219;DHT22;4644;48.858;9.184;2024-03-08T15:08:27;9.30;99.90
9219;DHT22;4644;48.858;9.184;2024-03-08T15:10:55;9.40;99.90
9219;DHT22;4644;48.858;9.184;2024-03-08T15:13:24;9.40;99.90
9219;DHT22;4644;48.858;9.184;2024-03-08T15:16:06;9.50;99.90
9219;DHT22;4644;48.858;9.184;2024-03-08T15:18:34;9.50;99.90
9219;DHT22;4644;48.858;9.184;2024-03-08T15:21:18;9.40;99.90
9219;DHT22;4644;48.858;9.184;2024-03-08T15:23:46;9.40;99.90
9219;DHT22;4644;48.858;9.184;2024-03-08T15:26:16;9.50;99.90
9219;DHT22;4644;48.858;9.184;2024-03-08T15:28:43;9.40;99.90
9219;DHT22;4644;48.858;9.184;2024-03-08T15:31:11;9.50;99.90
9219;DHT22;4644;48.858;9.184;2024-03-08T15:33:39;9.50;99.90
9219;DHT22;4644;48.858;9.184;2024-03-08T15:36:10;9.60;99.90
9219;DHT22;4644;48.858;9.184;2024-03-08T15:38:41;9.60;99.90
9219;DHT22;4644;48.858;9.184;2024-03-08T15:41:12;9.60;99.90
9219;DHT22;4644;48.858;9.184;2024-03-08T15:43:40;9.70;99.90
9219;DHT22;4644;48.858;9.184;2024-03-08T15:46:07;9.70;99.90
9219;DHT22;4644;48.858;9.184;2024-03-08T15:48:36;9.70;99.90
9219;DHT22;4644;48.858;9.184;2024-03-08T15:51:04;9.70;99.90
9219;DHT22;4644;48.858;9.184;2024-03-08T15:53:33;9.70;99.90
9219;DHT22;4644;48.858;9.184;2024-03-08T15:56:04;9.80;99.90
9219;DHT22;4644;48.858;9.184;2024-03-08T15:58:32;9.70;99.90
9219;DHT22;4644;48.858;9.184;2024-03-08T16:01:01;9.80;99.90
9219;DHT22;4644;48.858;9.184;2024-03-08T16:03:31;9.80;99.90
9219;DHT22;4644;48.858;9.184;2024-03-08T16:05:59;9.80;99.90
9219;DHT22;4644;48.858;9.184;2024-03-08T16:08:26;9.80;99.90
9219;DHT22;4644;48.858;9.184;2024-03-08T16:10:54;9.70;99.90
9219;DHT22;4644;48.858;9.184;2024-03-08T16:13:24;9.70;99.90
9219;DHT22;4644;48.858;9.184;2024-03-08T16:15:53;9.60;99.90
9219;DHT22;4644;48.858;9.184;2024-03-08T16:18:21;9.60;99.90
9219;DHT22;4644;48.858;9.184;2024-03-08T16:21:03;9.60;99.90
9219;DHT22;4644;48.858;9.184;2024-03-08T16:23:31;9.60;99.90
9219;DHT22;4644;48.858;9.184;2024-03-08T16:25:58;9.60;99.90
9219;DHT22;4644;48.858;9.184;2024-03-08T16:28:26;9.50;99.90
9219;DHT22;4644;48.858;9.184;2024-03-08T16:30:54;9.50;99.90